createdAt,value
2018-05-19T00:00:46.012Z,7.20
2018-05-19T00:03:14.146Z,8.20
2018-05-19T00:05:42.335Z,6.60
2018-05-19T00:08:11.201Z,7.77
2018-05-19T00:10:39.351Z,7.50
2018-05-19T00:13:08.256Z,8.03
2018-05-19T00:15:37.169Z,8.43
2018-05-19T00:18:05.309Z,7.40
2018-05-19T00:20:34.204Z,7.50
2018-05-19T00:23:03.114Z,7.57
2018-05-19T00:25:31.241Z,7.30
2018-05-19T00:27:59.381Z,8.77
2018-05-19T00:30:27.655Z,8.13
2018-05-19T00:32:55.815Z,7.43
2018-05-19T00:35:23.979Z,6.90
2018-05-19T00:37:52.094Z,9.23
2018-05-19T00:40:20.225Z,8.37
2018-05-19T00:42:48.349Z,6.57
2018-05-19T00:45:16.483Z,6.20
2018-05-19T00:47:44.621Z,6.90
2018-05-19T00:50:13.504Z,6.87
2018-05-19T00:52:42.409Z,6.87
2018-05-19T00:55:10.706Z,7.37
2018-05-19T00:57:38.884Z,7.37
2018-05-19T01:00:07.027Z,7.10
2018-05-19T01:02:35.961Z,8.30
2018-05-19T01:05:04.098Z,7.60
2018-05-19T01:07:32.228Z,8.13
2018-05-19T01:10:00.366Z,7.93
2018-05-19T01:12:28.557Z,7.23
2018-05-19T01:14:56.680Z,8.00
2018-05-19T01:17:25.581Z,7.53
2018-05-19T01:19:53.786Z,8.53
2018-05-19T01:22:21.961Z,6.83
2018-05-19T01:24:50.083Z,6.53
2018-05-19T01:27:18.994Z,6.77
2018-05-19T01:29:47.149Z,7.40
2018-05-19T01:32:15.335Z,8.60
2018-05-19T01:34:43.513Z,6.43
2018-05-19T01:37:11.656Z,8.07
2018-05-19T01:39:40.565Z,6.97
2018-05-19T01:42:08.693Z,7.13
2018-05-19T01:44:36.842Z,8.70
2018-05-19T01:47:04.975Z,7.87
2018-05-19T01:49:33.886Z,7.53
2018-05-19T01:52:03.033Z,6.97
2018-05-19T01:54:31.950Z,8.40
2018-05-19T01:57:00.874Z,7.73
2018-05-19T01:59:29.009Z,6.90
2018-05-19T02:01:57.896Z,8.87
2018-05-19T02:04:26.798Z,7.93
2018-05-19T02:06:54.959Z,7.10
2018-05-19T02:09:23.948Z,8.17
2018-05-19T02:11:52.832Z,7.90
2018-05-19T02:14:21.738Z,7.63
2018-05-19T02:16:49.880Z,6.77
2018-05-19T02:19:18.027Z,7.87
2018-05-19T02:21:46.202Z,8.07
2018-05-19T02:24:14.340Z,8.57
2018-05-19T02:26:42.476Z,7.63
2018-05-19T02:29:10.631Z,8.67
2018-05-19T02:31:38.776Z,7.30
2018-05-19T02:34:06.961Z,7.00
2018-05-19T02:36:35.091Z,8.77
2018-05-19T02:39:03.249Z,7.70
2018-05-19T02:41:31.360Z,7.53
2018-05-19T02:43:59.499Z,8.50
2018-05-19T02:46:28.399Z,6.83
2018-05-19T02:48:57.305Z,7.70
2018-05-19T02:51:25.444Z,7.77
2018-05-19T02:53:54.363Z,9.07
2018-05-19T02:56:22.513Z,8.80
2018-05-19T02:58:51.441Z,7.17
2018-05-19T03:01:19.578Z,8.07
2018-05-19T03:03:48.494Z,7.33
2018-05-19T03:06:16.644Z,7.63
2018-05-19T03:08:45.560Z,8.80
2018-05-19T03:11:13.701Z,8.00
2018-05-19T03:13:42.596Z,7.73
2018-05-19T03:16:11.485Z,8.10
2018-05-19T03:18:40.823Z,7.80
2018-05-19T03:21:08.966Z,7.80
2018-05-19T03:23:37.101Z,9.27
2018-05-19T03:26:05.251Z,8.43
2018-05-19T03:28:33.401Z,8.00
2018-05-19T03:31:01.557Z,8.50
2018-05-19T03:33:29.704Z,8.23
2018-05-19T03:35:57.891Z,7.97
2018-05-19T03:38:26.015Z,7.97
2018-05-19T03:40:54.176Z,9.27
2018-05-19T03:43:22.350Z,7.67
2018-05-19T03:45:50.496Z,8.50
2018-05-19T03:48:18.620Z,9.60
2018-05-19T03:50:46.774Z,9.50
2018-05-19T03:53:14.931Z,9.50
2018-05-19T03:55:43.070Z,10.53
2018-05-19T03:58:29.657Z,10.20
2018-05-19T04:01:15.801Z,10.67
2018-05-19T04:03:43.933Z,10.07
2018-05-19T04:06:12.921Z,9.77
2018-05-19T04:08:41.902Z,11.80
2018-05-19T04:11:10.064Z,9.90
2018-05-19T04:13:38.222Z,11.20
2018-05-19T04:16:06.357Z,11.47
2018-05-19T04:18:34.498Z,10.43
2018-05-19T04:21:02.739Z,11.43
2018-05-19T04:23:30.871Z,11.20
2018-05-19T04:25:59.006Z,11.23
2018-05-19T04:28:27.162Z,10.30
2018-05-19T04:30:55.305Z,11.07
2018-05-19T04:33:23.456Z,11.97
2018-05-19T04:35:52.378Z,10.63
2018-05-19T04:38:20.526Z,9.63
2018-05-19T04:40:48.669Z,10.17
2018-05-19T04:43:16.800Z,12.40
2018-05-19T04:45:45.005Z,12.57
2018-05-19T04:48:13.137Z,10.77
2018-05-19T04:50:41.318Z,11.80
2018-05-19T04:53:09.496Z,11.00
2018-05-19T04:55:39.183Z,10.70
2018-05-19T04:58:07.392Z,11.03
2018-05-19T05:00:35.540Z,11.10
2018-05-19T05:03:03.689Z,10.60
2018-05-19T05:05:31.876Z,11.27
2018-05-19T05:08:00.007Z,11.57
2018-05-19T05:10:28.149Z,12.37
2018-05-19T05:12:56.292Z,14.50
2018-05-19T05:15:24.438Z,11.60
2018-05-19T05:17:52.571Z,13.60
2018-05-19T05:20:20.719Z,11.23
2018-05-19T05:22:48.853Z,14.90
2018-05-19T05:25:17.034Z,12.60
2018-05-19T05:27:45.972Z,12.10
2018-05-19T05:30:14.244Z,13.30
2018-05-19T05:32:42.387Z,11.40
2018-05-19T05:35:10.531Z,11.10
2018-05-19T05:37:39.429Z,12.07
2018-05-19T05:40:08.389Z,12.60
2018-05-19T05:42:36.511Z,13.60
2018-05-19T05:45:04.660Z,12.90
2018-05-19T05:47:33.559Z,12.53
2018-05-19T05:50:02.561Z,11.47
2018-05-19T05:52:30.608Z,13.07
2018-05-19T05:54:59.522Z,14.03
2018-05-19T05:57:27.680Z,13.57
2018-05-19T05:59:56.629Z,14.23
2018-05-19T06:02:24.734Z,13.43
2018-05-19T06:04:53.644Z,13.33
2018-05-19T06:07:21.817Z,16.60
2018-05-19T06:09:51.991Z,14.97
2018-05-19T06:12:21.502Z,13.57
2018-05-19T06:14:50.547Z,15.83
2018-05-19T06:17:18.733Z,13.47
2018-05-19T06:19:47.739Z,13.57
2018-05-19T06:22:15.878Z,14.70
2018-05-19T06:24:44.625Z,14.80
2018-05-19T06:27:13.729Z,14.10
2018-05-19T06:29:42.653Z,14.97
2018-05-19T06:32:11.819Z,13.37
2018-05-19T06:34:40.071Z,14.77
2018-05-19T06:37:09.932Z,15.30
2018-05-19T06:39:38.077Z,14.77
2018-05-19T06:42:07.153Z,13.97
2018-05-19T06:44:35.997Z,13.30
2018-05-19T06:47:04.187Z,15.50
2018-05-19T06:49:32.337Z,13.80
2018-05-19T06:52:00.580Z,16.23
2018-05-19T06:54:29.523Z,15.03
2018-05-19T06:56:57.724Z,14.33
2018-05-19T06:59:25.955Z,16.47
2018-05-19T07:01:54.154Z,14.90
2018-05-19T07:04:22.314Z,15.80
2018-05-19T07:06:50.437Z,14.63
2018-05-19T07:09:19.345Z,16.00
2018-05-19T07:11:47.566Z,17.20
2018-05-19T07:14:15.814Z,15.20
2018-05-19T07:16:43.959Z,15.70
2018-05-19T07:19:12.110Z,16.80
2018-05-19T07:21:40.230Z,14.27
2018-05-19T07:24:08.409Z,15.50
2018-05-19T07:26:36.526Z,15.40
2018-05-19T07:29:04.666Z,15.40
2018-05-19T07:31:33.147Z,15.77
2018-05-19T07:34:01.319Z,15.30
2018-05-19T07:36:29.486Z,14.77
2018-05-19T07:38:57.645Z,14.20
2018-05-19T07:41:25.796Z,16.77
2018-05-19T07:43:54.667Z,14.40
2018-05-19T07:52:35.110Z,14.07
2018-05-19T07:58:38.905Z,15.70
2018-05-19T08:04:07.561Z,16.07
2018-05-19T08:12:47.169Z,15.90
2018-05-19T08:15:15.346Z,15.17
2018-05-19T08:17:43.586Z,15.60
2018-05-19T08:20:14.859Z,14.90
2018-05-19T08:22:43.030Z,16.50
2018-05-19T08:25:12.343Z,16.33
2018-05-19T08:27:41.749Z,14.73
2018-05-19T08:30:09.903Z,15.27
2018-05-19T08:32:39.648Z,14.60
2018-05-19T08:35:07.938Z,15.07
2018-05-19T08:37:36.971Z,14.47
2018-05-19T08:40:05.108Z,15.90
2018-05-19T08:42:34.570Z,14.63
2018-05-19T08:45:03.495Z,15.47
2018-05-19T08:47:58.144Z,16.20
2018-05-19T08:50:26.515Z,13.60
2018-05-19T08:52:54.654Z,15.90
2018-05-19T08:55:22.802Z,14.57
2018-05-19T08:57:51.027Z,13.90
2018-05-19T09:00:19.404Z,14.10
2018-05-19T09:02:47.582Z,14.10
2018-05-19T09:05:16.107Z,14.20
2018-05-19T09:07:44.272Z,16.07
2018-05-19T09:10:13.186Z,11.23
2018-05-19T09:12:41.406Z,17.20
2018-05-19T09:15:09.494Z,14.70
2018-05-19T09:17:38.385Z,15.43
2018-05-19T09:20:07.291Z,14.63
2018-05-19T09:22:35.985Z,12.83
2018-05-19T09:25:04.132Z,13.33
2018-05-19T09:27:35.928Z,13.27
2018-05-19T09:33:05.170Z,12.80
2018-05-19T09:35:33.327Z,13.97
2018-05-19T09:38:01.597Z,15.83
2018-05-19T09:40:29.932Z,13.50
2018-05-19T09:42:58.064Z,13.37
2018-05-19T09:45:26.214Z,13.33
2018-05-19T09:47:56.824Z,12.70
2018-05-19T09:50:27.143Z,12.10
2018-05-19T09:52:56.270Z,12.80
2018-05-19T09:55:25.305Z,13.00
2018-05-19T09:57:53.552Z,12.10
2018-05-19T10:00:21.727Z,11.50
2018-05-19T10:02:49.875Z,11.57
2018-05-19T10:05:18.155Z,11.93
2018-05-19T10:07:46.178Z,10.40
2018-05-19T10:10:15.102Z,11.67
2018-05-19T10:12:43.641Z,11.10
2018-05-19T10:15:11.859Z,12.17
2018-05-19T10:17:40.009Z,12.87
2018-05-19T10:20:08.911Z,11.03
2018-05-19T10:22:37.051Z,10.87
2018-05-19T10:25:05.950Z,10.43
2018-05-19T10:27:35.173Z,8.87
2018-05-19T10:30:03.308Z,9.60
2018-05-19T10:32:32.493Z,8.27
2018-05-19T10:35:00.653Z,7.50
2018-05-19T10:37:28.782Z,7.77
2018-05-19T10:39:56.921Z,7.87
2018-05-19T10:42:25.073Z,8.10
2018-05-19T10:44:53.217Z,7.63
2018-05-19T10:47:21.385Z,8.30
2018-05-19T10:49:49.532Z,8.03
2018-05-19T10:52:18.446Z,8.20
2018-05-19T10:54:46.583Z,8.60
2018-05-19T10:57:15.518Z,7.90
2018-05-19T10:59:43.675Z,7.00
2018-05-19T11:02:11.945Z,8.67
2018-05-19T11:04:40.913Z,8.77
2018-05-19T11:07:10.003Z,8.10
2018-05-19T11:09:38.137Z,9.03
2018-05-19T11:12:06.370Z,7.80
2018-05-19T11:14:34.534Z,9.23
2018-05-19T11:17:03.627Z,9.83
2018-05-19T11:19:32.684Z,7.87
2018-05-19T11:22:00.890Z,7.13
2018-05-19T11:24:29.009Z,7.03
2018-05-19T11:26:57.152Z,7.20
2018-05-19T11:29:25.488Z,6.43
2018-05-19T11:31:53.628Z,6.73
2018-05-19T11:34:21.753Z,8.57
2018-05-19T11:36:50.681Z,7.77
2018-05-19T11:39:18.807Z,7.97
2018-05-19T11:41:47.249Z,9.93
2018-05-19T11:44:15.459Z,8.47
2018-05-19T11:46:43.618Z,9.00
2018-05-19T11:49:11.774Z,10.00
2018-05-19T11:51:39.908Z,9.13
2018-05-19T11:54:08.051Z,9.53
2018-05-19T11:56:36.211Z,8.60
2018-05-19T11:59:04.347Z,8.13
2018-05-19T12:01:32.482Z,9.63
2018-05-19T12:04:01.380Z,10.10
2018-05-19T12:06:30.323Z,8.73
2018-05-19T12:08:58.460Z,9.97
2018-05-19T12:11:28.892Z,9.60
2018-05-19T12:14:00.007Z,9.27
2018-05-19T12:16:28.866Z,10.90
2018-05-19T12:18:57.419Z,10.53
2018-05-19T12:21:25.577Z,9.80
2018-05-19T12:23:53.766Z,10.80
2018-05-19T12:26:22.057Z,8.63
2018-05-19T12:28:50.345Z,10.30
2018-05-19T12:31:19.394Z,9.67
2018-05-19T12:33:47.583Z,9.43
2018-05-19T12:36:15.715Z,9.40
2018-05-19T12:38:44.601Z,10.73
2018-05-19T12:41:13.507Z,10.87
2018-05-19T12:43:41.635Z,9.60
2018-05-19T12:46:13.732Z,8.90
2018-05-19T12:48:41.909Z,8.70
2018-05-19T12:51:10.008Z,7.33
2018-05-19T12:53:38.139Z,8.50
2018-05-19T12:56:06.272Z,8.23
2018-05-19T12:58:34.412Z,10.87
2018-05-19T13:01:02.557Z,8.00
2018-05-19T13:03:31.523Z,7.90
2018-05-19T13:05:59.611Z,7.37
2018-05-19T13:08:27.781Z,7.17
2018-05-19T13:10:56.022Z,6.23
2018-05-19T13:13:24.213Z,6.50
2018-05-19T13:15:52.347Z,7.07
2018-05-19T13:18:20.510Z,7.10
2018-05-19T13:20:48.642Z,6.00
2018-05-19T13:23:16.781Z,8.03
2018-05-19T13:25:45.170Z,9.67
2018-05-19T13:28:14.012Z,7.10
2018-05-19T13:30:42.153Z,7.60
2018-05-19T13:33:10.316Z,7.13
2018-05-19T13:35:38.452Z,6.43
2018-05-19T13:38:06.643Z,5.40
2018-05-19T13:40:34.882Z,6.40
2018-05-19T13:43:03.020Z,5.90
2018-05-19T13:45:31.165Z,5.53
2018-05-19T13:47:59.307Z,6.27
2018-05-19T13:50:28.221Z,6.37
2018-05-19T13:52:56.385Z,6.27
2018-05-19T13:55:24.533Z,6.60
2018-05-19T13:57:52.737Z,6.50
2018-05-19T14:00:20.852Z,5.87
2018-05-19T14:02:49.769Z,6.30
2018-05-19T14:05:17.962Z,5.83
2018-05-19T14:07:46.834Z,5.97
2018-05-19T14:10:15.111Z,6.23
2018-05-19T14:12:43.256Z,6.10
2018-05-19T14:15:12.177Z,6.83
2018-05-19T14:17:40.601Z,6.73
2018-05-19T14:20:13.244Z,6.80
2018-05-19T14:22:41.624Z,6.43
2018-05-19T14:25:12.487Z,6.33
2018-05-19T14:27:40.758Z,6.33
2018-05-19T14:30:09.700Z,6.10
2018-05-19T14:32:37.859Z,6.00
2018-05-19T14:35:06.025Z,6.60
2018-05-19T14:37:34.247Z,7.50
2018-05-19T14:40:02.437Z,6.70
2018-05-19T14:42:30.578Z,6.60
2018-05-19T14:44:58.711Z,6.43
2018-05-19T14:47:26.858Z,6.73
2018-05-19T14:49:54.998Z,6.40
2018-05-19T14:52:23.151Z,6.83
2018-05-19T14:54:51.299Z,6.47
2018-05-19T14:57:19.458Z,6.70
2018-05-19T14:59:47.605Z,6.80
2018-05-19T15:02:15.792Z,7.67
2018-05-19T15:04:43.950Z,6.53
2018-05-19T15:07:12.105Z,7.10
2018-05-19T15:09:40.242Z,6.30
2018-05-19T15:12:09.157Z,7.27
2018-05-19T15:14:37.285Z,6.90
2018-05-19T15:17:05.425Z,6.30
2018-05-19T15:19:33.558Z,7.00
2018-05-19T15:22:02.506Z,6.80
2018-05-19T15:24:30.632Z,7.80
2018-05-19T15:26:58.770Z,6.50
2018-05-19T15:29:26.943Z,5.97
2018-05-19T15:31:55.090Z,6.70
2018-05-19T15:34:23.262Z,6.37
2018-05-19T15:36:51.441Z,6.30
2018-05-19T15:39:19.586Z,7.27
2018-05-19T15:41:47.743Z,7.07
2018-05-19T15:44:15.875Z,6.83
2018-05-19T15:46:44.033Z,7.63
2018-05-19T15:49:13.113Z,7.00
2018-05-19T15:51:41.252Z,7.00
2018-05-19T15:54:10.161Z,7.10
2018-05-19T15:56:38.801Z,7.40
2018-05-19T15:59:07.722Z,8.23
2018-05-19T16:01:35.837Z,6.67
2018-05-19T16:04:04.126Z,7.10
2018-05-19T16:06:32.257Z,7.40
2018-05-19T16:09:00.385Z,7.07
2018-05-19T16:11:29.311Z,8.40
2018-05-19T16:13:58.427Z,8.77
2018-05-19T16:16:26.573Z,7.37
2018-05-19T16:18:54.962Z,7.67
2018-05-19T16:21:23.086Z,7.10
2018-05-19T16:23:51.246Z,7.70
2018-05-19T16:26:19.453Z,7.60
2018-05-19T16:28:48.387Z,9.90
2018-05-19T16:31:16.536Z,9.63
2018-05-19T16:33:45.121Z,8.77
2018-05-19T16:36:14.902Z,9.70
2018-05-19T16:38:46.003Z,8.80
2018-05-19T16:41:14.125Z,8.87
2018-05-19T16:43:42.279Z,9.30
2018-05-19T16:46:11.204Z,9.60
2018-05-19T16:48:39.509Z,9.77
2018-05-19T16:51:08.220Z,10.67
2018-05-19T16:53:36.402Z,10.30
2018-05-19T16:56:06.234Z,9.70
2018-05-19T16:58:35.418Z,10.30
2018-05-19T17:01:04.370Z,11.27
2018-05-19T17:03:32.563Z,10.30
2018-05-19T17:06:00.701Z,10.20
2018-05-19T17:08:28.846Z,10.70
2018-05-19T17:10:56.974Z,9.00
2018-05-19T17:13:25.149Z,9.83
2018-05-19T17:15:53.277Z,8.97
2018-05-19T17:18:21.471Z,9.20
2018-05-19T17:20:50.311Z,10.20
2018-05-19T17:23:18.456Z,9.47
2018-05-19T17:25:46.589Z,10.07
2018-05-19T17:28:14.797Z,9.50
2018-05-19T17:30:43.460Z,9.70
2018-05-19T17:33:11.643Z,9.50
2018-05-19T17:35:40.005Z,8.70
2018-05-19T17:38:10.014Z,8.70
2018-05-19T17:40:39.935Z,9.97
2018-05-19T17:43:08.256Z,10.57
2018-05-19T17:45:36.793Z,10.83
2018-05-19T17:48:05.085Z,7.90
2018-05-19T17:50:33.224Z,9.60
2018-05-19T17:53:02.240Z,10.10
2018-05-19T17:55:34.745Z,9.90
2018-05-19T17:58:02.974Z,9.53
2018-05-19T18:00:31.149Z,9.80
2018-05-19T18:02:59.350Z,9.67
2018-05-19T18:05:27.495Z,9.00
2018-05-19T18:07:57.198Z,10.13
2018-05-19T18:10:25.764Z,7.87
2018-05-19T18:12:55.762Z,8.30
2018-05-19T18:15:27.471Z,9.00
2018-05-19T18:17:55.741Z,7.47
2018-05-19T18:20:24.275Z,8.57
2018-05-19T18:22:56.332Z,8.10
2018-05-19T18:25:24.522Z,7.90
2018-05-19T18:27:52.677Z,8.10
2018-05-19T18:30:20.882Z,9.90
2018-05-19T18:32:50.022Z,7.97
2018-05-19T18:35:25.294Z,8.53
2018-05-19T18:37:55.466Z,8.97
2018-05-19T18:40:24.365Z,9.43
2018-05-19T18:42:53.338Z,9.20
2018-05-19T18:45:22.579Z,8.40
2018-05-19T18:47:50.755Z,8.87
2018-05-19T18:50:26.074Z,9.30
2018-05-19T18:53:01.249Z,8.93
2018-05-19T18:55:30.189Z,8.37
2018-05-19T18:57:58.322Z,9.20
2018-05-19T19:00:27.237Z,9.13
2018-05-19T19:02:55.401Z,9.50
2018-05-19T19:05:28.821Z,8.50
2018-05-19T19:07:57.169Z,9.87
2018-05-19T19:10:26.205Z,10.13
2018-05-19T19:15:29.614Z,10.33
2018-05-19T19:17:57.830Z,9.27
2018-05-19T19:20:26.757Z,10.50
2018-05-19T19:22:54.890Z,10.97
2018-05-19T19:25:23.955Z,10.17
2018-05-19T19:27:52.191Z,10.83
2018-05-19T19:30:20.344Z,11.50
2018-05-19T19:32:48.641Z,10.53
2018-05-19T19:35:16.780Z,10.70
2018-05-19T19:37:45.738Z,10.50
2018-05-19T19:40:13.888Z,10.07
2018-05-19T19:42:42.044Z,11.83
2018-05-19T19:45:10.928Z,11.93
2018-05-19T19:47:39.097Z,11.43
2018-05-19T19:50:07.335Z,10.03
2018-05-19T19:52:35.500Z,9.00
2018-05-19T19:55:03.651Z,9.43
2018-05-19T19:57:31.846Z,10.77
2018-05-19T20:00:00.024Z,9.23
2018-05-19T20:02:28.169Z,9.40
2018-05-19T20:04:56.296Z,8.13
2018-05-19T20:07:25.190Z,6.70
2018-05-19T20:09:53.322Z,7.17
2018-05-19T20:12:21.441Z,6.50
2018-05-19T20:14:49.603Z,6.90
2018-05-19T20:17:18.502Z,6.60
2018-05-19T20:19:46.653Z,6.27
2018-05-19T20:22:15.551Z,7.17
2018-05-19T20:24:44.475Z,6.10
2018-05-19T20:27:12.606Z,5.77
2018-05-19T20:29:41.570Z,5.03
2018-05-19T20:32:09.716Z,4.73
2018-05-19T20:34:37.858Z,5.00
2018-05-19T20:37:06.069Z,5.60
2018-05-19T20:39:34.176Z,5.20
2018-05-19T20:42:02.329Z,5.20
2018-05-19T20:44:30.449Z,5.50
2018-05-19T20:46:58.603Z,4.80
2018-05-19T20:49:27.508Z,5.60
2018-05-19T20:51:55.641Z,5.13
2018-05-19T20:54:23.782Z,5.17
2018-05-19T20:56:51.911Z,4.57
2018-05-19T20:59:20.828Z,5.30
2018-05-19T21:01:49.007Z,4.73
2018-05-19T21:04:17.653Z,4.90
2018-05-19T21:06:46.588Z,5.43
2018-05-19T21:09:14.731Z,5.70
2018-05-19T21:11:42.907Z,4.57
2018-05-19T21:14:11.048Z,4.17
2018-05-19T21:16:39.213Z,4.10
2018-05-19T21:19:07.416Z,4.50
2018-05-19T21:21:35.498Z,5.10
2018-05-19T21:24:04.384Z,3.73
2018-05-19T21:26:33.278Z,4.20
2018-05-19T21:29:01.410Z,4.40
2018-05-19T21:31:29.547Z,4.80
2018-05-19T21:33:57.689Z,4.50
2018-05-19T21:36:26.569Z,3.40
2018-05-19T21:38:55.474Z,3.53
2018-05-19T21:41:23.673Z,4.10
2018-05-19T21:43:51.844Z,4.90
2018-05-19T21:46:20.004Z,4.67
2018-05-19T21:48:48.191Z,5.00
2018-05-19T21:51:16.317Z,5.37
2018-05-19T21:53:45.244Z,4.53
2018-05-19T21:56:13.381Z,5.23
2018-05-19T21:58:42.293Z,3.77
2018-05-19T22:01:10.443Z,3.60
2018-05-19T22:03:40.133Z,3.90
2018-05-19T22:06:08.289Z,3.37
2018-05-19T22:08:36.416Z,3.40
2018-05-19T22:11:05.330Z,3.20
2018-05-19T22:13:33.581Z,4.13
2018-05-19T22:16:01.735Z,4.10
2018-05-19T22:18:30.646Z,3.20
2018-05-19T22:20:58.775Z,3.20
2018-05-19T22:23:26.927Z,3.13
2018-05-19T22:25:55.089Z,3.50
2018-05-19T22:28:23.229Z,3.97
2018-05-19T22:30:52.113Z,3.47
2018-05-19T22:33:21.021Z,4.00
2018-05-19T22:35:50.047Z,3.87
2018-05-19T22:38:18.176Z,3.60
2018-05-19T22:40:46.305Z,3.00
2018-05-19T22:43:14.454Z,3.30
2018-05-19T22:45:42.638Z,3.40
2018-05-19T22:48:10.797Z,3.40
2018-05-19T22:50:38.961Z,3.73
2018-05-19T22:53:07.080Z,3.97
2018-05-19T22:55:35.231Z,3.60
2018-05-19T22:58:03.399Z,2.90
2018-05-19T23:00:31.625Z,3.73
2018-05-19T23:03:03.437Z,3.63
2018-05-19T23:05:31.632Z,3.27
2018-05-19T23:07:59.718Z,3.43
2018-05-19T23:10:28.619Z,3.27
2018-05-19T23:12:57.497Z,3.30
2018-05-19T23:15:26.414Z,3.40
2018-05-19T23:17:54.542Z,3.33
2018-05-19T23:20:22.699Z,3.40
2018-05-19T23:22:54.812Z,2.73
2018-05-19T23:25:23.485Z,3.57
2018-05-19T23:27:52.400Z,3.27
2018-05-19T23:30:20.788Z,4.00
2018-05-19T23:32:51.327Z,3.53
2018-05-19T23:35:19.493Z,3.40
2018-05-19T23:37:48.603Z,3.20
2018-05-19T23:40:16.774Z,3.20
2018-05-19T23:42:44.905Z,3.20
2018-05-19T23:45:13.050Z,3.90
2018-05-19T23:47:41.678Z,3.43
2018-05-19T23:50:10.914Z,3.40
2018-05-19T23:52:40.951Z,3.10
2018-05-19T23:55:09.172Z,3.53
2018-05-19T23:57:37.309Z,3.97
